Isle of Tiree, United Kingdom
Current Conditions -  °F | °C
As of 5:20 PM on Saturday 22 Nov 2014 (Local Time) from EGPU Reporting Station
Few Clouds Few Clouds  
Wind Chill: 42°   Ceiling: Unl
Heat Index: 46°   Visibility: 6mi
Dew Point: 41°   Wind: 8mph
Humidity: 81%   Direction: 280°W
Pressure: 29.8"   Gusts: NA
Location:  56.51°N, 6.81°W
Report Text: EGPU 221720Z AUTO 28007KT 350V050 9999 FEW026/// 08/05 Q1009
Loading
Personal Weather Stations






























Interactive Weather Map New forecast layout! Learn more

10-Day Weather Forecast

Advertisements
Track Severe Weather on mobile